createdAt,value
2018-06-08T00:00:57.300Z,33.20
2018-06-08T00:01:57.258Z,35.80
2018-06-08T00:02:57.211Z,38.50
2018-06-08T00:03:57.173Z,37.40
2018-06-08T00:04:57.128Z,34.50
2018-06-08T00:05:57.085Z,39.80
2018-06-08T00:06:57.043Z,37.20
2018-06-08T00:07:57.035Z,35.30
2018-06-08T00:08:56.955Z,37.90
2018-06-08T00:09:56.912Z,34.20
2018-06-08T00:10:56.870Z,37.10
2018-06-08T00:11:56.829Z,39.10
2018-06-08T00:12:56.781Z,37.50
2018-06-08T00:13:56.742Z,38.80
2018-06-08T00:14:56.698Z,37.40
2018-06-08T00:15:56.652Z,37.20
2018-06-08T00:16:56.645Z,40.50
2018-06-08T00:17:56.572Z,41.70
2018-06-08T00:18:56.525Z,37.70
2018-06-08T00:19:56.485Z,38.40
2018-06-08T00:20:56.449Z,37.60
2018-06-08T00:21:56.398Z,36.70
2018-06-08T00:22:56.354Z,37.80
2018-06-08T00:23:56.311Z,36.40
2018-06-08T00:24:56.266Z,40.30
2018-06-08T00:25:56.223Z,37.10
2018-06-08T00:26:56.185Z,39.70
2018-06-08T00:27:56.187Z,37.50
2018-06-08T00:28:56.095Z,36.70
2018-06-08T00:29:56.056Z,40.50
2018-06-08T00:30:56.010Z,41.40
2018-06-08T00:31:55.969Z,36.30
2018-06-08T00:32:55.923Z,38.70
2018-06-08T00:33:55.880Z,39.70
2018-06-08T00:34:55.837Z,36.40
2018-06-08T00:35:55.799Z,34.60
2018-06-08T00:36:55.791Z,34.80
2018-06-08T00:37:55.708Z,40.80
2018-06-08T00:38:55.667Z,35.70
2018-06-08T00:39:55.624Z,36.40
2018-06-08T00:40:55.579Z,36.30
2018-06-08T00:41:55.540Z,37.30
2018-06-08T00:42:55.495Z,34.50
2018-06-08T00:43:55.453Z,35.30
2018-06-08T00:44:55.407Z,35.10
2018-06-08T00:45:55.399Z,35.00
2018-06-08T00:46:55.324Z,34.40
2018-06-08T00:47:55.280Z,38.40
2018-06-08T00:48:55.235Z,36.80
2018-06-08T00:49:55.194Z,35.50
2018-06-08T00:50:55.149Z,38.40
2018-06-08T00:51:55.106Z,38.60
2018-06-08T00:52:55.064Z,37.30
2018-06-08T00:53:55.020Z,39.90
2018-06-08T00:54:55.012Z,39.60
2018-06-08T00:55:54.934Z,38.70
2018-06-08T00:56:54.891Z,39.90
2018-06-08T00:57:54.848Z,41.10
2018-06-08T00:58:54.806Z,45.80
2018-06-08T00:59:54.764Z,37.60
2018-06-08T01:00:54.719Z,39.80
2018-06-08T01:01:54.677Z,39.00
2018-06-08T01:02:54.633Z,39.20
2018-06-08T01:03:54.598Z,38.40
2018-06-08T01:04:54.547Z,40.70
2018-06-08T01:05:54.543Z,37.60
2018-06-08T01:06:54.462Z,39.80
2018-06-08T01:07:54.420Z,41.90
2018-06-08T01:08:54.375Z,37.20
2018-06-08T01:09:54.331Z,37.80
2018-06-08T01:10:54.295Z,38.90
2018-06-08T01:11:54.246Z,37.30
2018-06-08T01:12:56.167Z,37.90
2018-06-08T01:13:54.157Z,39.90
2018-06-08T01:14:54.118Z,40.90
2018-06-08T01:15:54.075Z,39.50
2018-06-08T01:16:55.605Z,39.60
2018-06-08T01:17:53.989Z,42.00
2018-06-08T01:18:53.946Z,40.10
2018-06-08T01:19:54.009Z,40.40
2018-06-08T01:20:53.857Z,36.60
2018-06-08T01:21:53.840Z,38.30
2018-06-08T01:22:53.773Z,38.30
2018-06-08T01:23:53.748Z,40.00
2018-06-08T01:24:53.684Z,39.50
2018-06-08T01:26:08.302Z,41.90
2018-06-08T01:26:53.599Z,38.10
2018-06-08T01:27:53.558Z,43.50
2018-06-08T01:28:53.512Z,36.90
2018-06-08T01:29:53.470Z,40.50
2018-06-08T01:30:54.172Z,39.20
2018-06-08T01:31:53.384Z,38.10
2018-06-08T01:32:53.342Z,40.60
2018-06-08T01:33:53.383Z,38.30
2018-06-08T01:34:53.255Z,39.50
2018-06-08T01:35:53.228Z,37.10
2018-06-08T01:36:59.715Z,37.80
2018-06-08T01:37:53.673Z,40.50
2018-06-08T01:38:53.085Z,38.40
2018-06-08T01:39:53.039Z,39.40
2018-06-08T01:40:53.023Z,38.60
2018-06-08T01:41:53.380Z,41.20
2018-06-08T01:42:52.930Z,38.90
2018-06-08T01:43:52.868Z,40.50
2018-06-08T01:44:53.676Z,37.00
2018-06-08T01:45:52.781Z,38.60
2018-06-08T01:46:52.740Z,41.20
2018-06-08T01:47:52.758Z,42.10
2018-06-08T01:48:52.672Z,42.30
2018-06-08T01:49:52.611Z,43.60
2018-06-08T01:50:59.227Z,44.70
2018-06-08T01:51:53.174Z,45.00
2018-06-08T01:52:52.477Z,45.70
2018-06-08T01:53:52.434Z,48.60
2018-06-08T01:54:52.499Z,40.80
2018-06-08T01:55:52.346Z,41.10
2018-06-08T01:56:52.324Z,42.40
2018-06-08T01:57:53.537Z,42.60
2018-06-08T01:58:53.178Z,41.00
2018-06-08T01:59:52.178Z,43.40
2018-06-08T02:00:52.169Z,44.10
2018-06-08T02:01:52.137Z,41.80
2018-06-08T02:02:52.049Z,45.70
2018-06-08T02:03:52.028Z,46.60
2018-06-08T02:04:58.696Z,47.40
2018-06-08T02:05:52.680Z,44.10
2018-06-08T02:06:51.874Z,49.00
2018-06-08T02:07:51.869Z,45.50
2018-06-08T02:08:51.787Z,48.60
2018-06-08T02:09:51.742Z,45.80
2018-06-08T02:10:51.718Z,44.00
2018-06-08T02:11:51.655Z,43.70
2018-06-08T02:12:52.181Z,48.70
2018-06-08T02:13:54.221Z,45.20
2018-06-08T02:14:51.532Z,47.90
2018-06-08T02:15:51.487Z,43.80
2018-06-08T02:16:51.452Z,47.30
2018-06-08T02:17:51.398Z,46.60
2018-06-08T02:18:51.354Z,49.00
2018-06-08T02:19:51.311Z,49.40
2018-06-08T02:20:51.270Z,45.80
2018-06-08T02:21:51.223Z,51.00
2018-06-08T02:22:51.367Z,51.40
2018-06-08T02:23:51.140Z,46.60
2018-06-08T02:24:51.095Z,50.50
2018-06-08T02:25:51.051Z,47.40
2018-06-08T02:26:51.010Z,45.10
2018-06-08T02:27:50.965Z,48.50
2018-06-08T02:28:50.989Z,46.20
2018-06-08T02:29:50.878Z,47.70
2018-06-08T02:30:50.834Z,45.90
2018-06-08T02:31:50.967Z,44.40
2018-06-08T02:32:50.749Z,45.40
2018-06-08T02:33:50.705Z,49.20
2018-06-08T02:34:50.721Z,48.70
2018-06-08T02:35:50.619Z,48.20
2018-06-08T02:36:50.575Z,48.50
2018-06-08T02:37:50.533Z,48.90
2018-06-08T02:38:50.488Z,49.60
2018-06-08T02:39:50.444Z,47.70
2018-06-08T02:40:50.568Z,48.40
2018-06-08T02:41:50.358Z,51.20
2018-06-08T02:42:50.313Z,52.40
2018-06-08T02:43:50.376Z,57.70
2018-06-08T02:44:50.228Z,53.30
2018-06-08T02:45:50.183Z,57.60
2018-06-08T02:46:50.145Z,56.30
2018-06-08T02:47:50.096Z,58.20
2018-06-08T02:48:50.052Z,58.50
2018-06-08T02:49:50.179Z,56.20
2018-06-08T02:50:49.969Z,60.80
2018-06-08T02:51:49.924Z,56.40
2018-06-08T02:52:49.884Z,57.10
2018-06-08T02:53:49.835Z,60.70
2018-06-08T02:54:49.793Z,53.70
2018-06-08T02:55:49.756Z,57.50
2018-06-08T02:56:49.708Z,60.90
2018-06-08T02:57:49.662Z,58.80
2018-06-08T02:58:49.618Z,63.50
2018-06-08T02:59:49.576Z,58.70
2018-06-08T03:00:49.669Z,61.20
2018-06-08T03:01:49.489Z,63.20
2018-06-08T03:02:49.445Z,62.10
2018-06-08T03:03:49.485Z,64.50
2018-06-08T03:04:49.357Z,63.30
2018-06-08T03:05:49.318Z,62.70
2018-06-08T03:06:49.276Z,60.20
2018-06-08T03:07:49.239Z,53.90
2018-06-08T03:08:49.184Z,52.20
2018-06-08T03:09:49.381Z,51.10
2018-06-08T03:10:49.098Z,53.50
2018-06-08T03:11:49.061Z,51.10
2018-06-08T03:12:49.032Z,52.30
2018-06-08T03:13:48.969Z,51.90
2018-06-08T03:14:48.928Z,52.20
2018-06-08T03:15:48.881Z,51.90
2018-06-08T03:16:48.855Z,52.00
2018-06-08T03:17:48.799Z,50.50
2018-06-08T03:18:48.887Z,53.40
2018-06-08T03:19:48.707Z,50.90
2018-06-08T03:20:48.661Z,49.10
2018-06-08T03:21:48.685Z,53.00
2018-06-08T03:22:48.576Z,50.60
2018-06-08T03:23:48.533Z,52.50
2018-06-08T03:24:48.488Z,54.10
2018-06-08T03:25:48.455Z,50.80
2018-06-08T03:26:48.401Z,51.00
2018-06-08T03:27:48.589Z,53.10
2018-06-08T03:28:48.313Z,48.50
2018-06-08T03:29:48.271Z,50.80
2018-06-08T03:30:48.336Z,50.20
2018-06-08T03:31:48.184Z,48.70
2018-06-08T03:32:48.140Z,50.70
2018-06-08T03:33:48.097Z,53.80
2018-06-08T03:34:48.052Z,52.80
2018-06-08T03:35:48.010Z,51.20
2018-06-08T03:36:48.198Z,50.90
2018-06-08T03:37:47.923Z,48.70
2018-06-08T03:38:47.879Z,49.20
2018-06-08T03:39:47.840Z,50.80
2018-06-08T03:40:47.792Z,47.70
2018-06-08T03:41:47.748Z,47.10
2018-06-08T03:42:47.706Z,51.30
2018-06-08T03:43:47.661Z,49.80
2018-06-08T03:44:47.617Z,50.30
2018-06-08T03:45:47.802Z,50.50
2018-06-08T03:46:47.531Z,51.70
2018-06-08T03:47:47.487Z,53.90
2018-06-08T03:48:47.538Z,54.70
2018-06-08T03:49:47.399Z,53.20
2018-06-08T03:50:47.357Z,55.00
2018-06-08T03:51:47.314Z,55.50
2018-06-08T03:52:47.293Z,50.50
2018-06-08T03:53:47.225Z,50.50
2018-06-08T03:54:47.404Z,50.40
2018-06-08T03:55:47.139Z,47.10
2018-06-08T03:56:47.095Z,49.40
2018-06-08T03:57:47.083Z,47.20
2018-06-08T03:58:47.008Z,49.20
2018-06-08T03:59:46.966Z,49.40
2018-06-08T04:00:46.922Z,51.10
2018-06-08T04:01:46.900Z,49.00
2018-06-08T04:02:46.834Z,48.30
2018-06-08T04:03:47.018Z,48.20
2018-06-08T04:04:46.746Z,48.80
2018-06-08T04:05:46.706Z,54.40
2018-06-08T04:06:46.735Z,52.40
2018-06-08T04:07:46.616Z,52.80
2018-06-08T04:08:46.572Z,57.30
2018-06-08T04:09:46.531Z,52.00
2018-06-08T04:10:46.504Z,54.60
2018-06-08T04:11:46.445Z,47.80
2018-06-08T04:12:46.624Z,49.00
2018-06-08T04:13:46.354Z,49.80
2018-06-08T04:14:46.311Z,51.40
2018-06-08T04:15:46.273Z,49.90
2018-06-08T04:16:46.226Z,51.10
2018-06-08T04:17:46.180Z,46.00
2018-06-08T04:18:46.136Z,47.10
2018-06-08T04:19:46.112Z,47.20
2018-06-08T04:20:46.052Z,44.70
2018-06-08T04:21:46.233Z,43.50
2018-06-08T04:22:45.965Z,39.40
2018-06-08T04:23:45.921Z,39.90
2018-06-08T04:24:45.881Z,39.60
2018-06-08T04:25:45.872Z,38.30
2018-06-08T04:26:45.791Z,36.60
2018-06-08T04:27:45.750Z,36.70
2018-06-08T04:28:45.723Z,36.30
2018-06-08T04:29:45.664Z,37.30
2018-06-08T04:30:45.620Z,35.20
2018-06-08T04:31:45.583Z,36.10
2018-06-08T04:32:45.760Z,35.40
2018-06-08T04:33:45.496Z,38.10
2018-06-08T04:34:45.452Z,40.70
2018-06-08T04:35:45.497Z,40.00
2018-06-08T04:36:45.367Z,42.10
2018-06-08T04:37:45.327Z,39.30
2018-06-08T04:38:45.285Z,39.70
2018-06-08T04:39:45.257Z,42.60
2018-06-08T04:40:45.201Z,43.70
2018-06-08T04:41:45.343Z,40.10
2018-06-08T04:42:45.117Z,41.30
2018-06-08T04:43:45.074Z,40.10
2018-06-08T04:44:45.147Z,40.30
2018-06-08T04:45:44.990Z,35.20
2018-06-08T04:46:44.967Z,44.50
2018-06-08T04:47:44.908Z,39.60
2018-06-08T04:48:44.867Z,40.20
2018-06-08T04:49:44.821Z,38.70
2018-06-08T04:50:44.797Z,42.70
2018-06-08T04:51:44.804Z,38.50
2018-06-08T04:52:44.956Z,39.60
2018-06-08T04:53:44.656Z,38.90
2018-06-08T04:54:44.615Z,36.10
2018-06-08T04:55:44.574Z,40.20
2018-06-08T04:56:44.531Z,36.60
2018-06-08T04:57:44.491Z,35.90
2018-06-08T04:58:44.449Z,40.70
2018-06-08T04:59:44.407Z,38.70
2018-06-08T05:00:44.367Z,38.20
2018-06-08T05:01:45.238Z,39.90
2018-06-08T05:02:44.284Z,38.50
2018-06-08T05:03:44.243Z,40.90
2018-06-08T05:04:44.204Z,36.90
2018-06-08T05:05:44.160Z,35.20
2018-06-08T05:06:44.126Z,35.30
2018-06-08T05:07:44.079Z,36.00
2018-06-08T05:08:44.039Z,31.40
2018-06-08T05:09:44.113Z,34.60
2018-06-08T05:10:43.957Z,34.70
2018-06-08T05:11:44.032Z,36.10
2018-06-08T05:12:43.874Z,37.40
2018-06-08T05:13:43.841Z,38.20
2018-06-08T05:14:43.793Z,34.90
2018-06-08T05:15:43.753Z,34.10
2018-06-08T05:16:58.266Z,37.30
2018-06-08T05:17:43.673Z,39.20
2018-06-08T05:18:43.858Z,39.10
2018-06-08T05:19:43.591Z,42.10
2018-06-08T05:20:43.550Z,38.50
2018-06-08T05:21:43.556Z,37.00
2018-06-08T05:22:43.466Z,40.70
2018-06-08T05:23:43.426Z,39.70
2018-06-08T05:24:43.385Z,36.10
2018-06-08T05:25:43.358Z,39.60
2018-06-08T05:26:43.306Z,36.10
2018-06-08T05:27:43.263Z,38.40
2018-06-08T05:28:43.230Z,41.50
2018-06-08T05:29:43.196Z,40.90
2018-06-08T05:30:43.152Z,40.60
2018-06-08T05:31:43.112Z,40.30
2018-06-08T05:32:43.063Z,41.60
2018-06-08T05:33:43.021Z,41.30
2018-06-08T05:34:42.979Z,42.40
2018-06-08T05:35:42.963Z,42.10
2018-06-08T05:36:42.893Z,42.90
2018-06-08T05:37:42.851Z,44.70
2018-06-08T05:38:42.847Z,42.30
2018-06-08T05:39:42.770Z,42.70
2018-06-08T05:40:42.739Z,40.10
2018-06-08T05:41:42.687Z,40.40
2018-06-08T05:42:42.649Z,42.50
2018-06-08T05:43:42.605Z,40.40
2018-06-08T05:44:42.564Z,44.60
2018-06-08T05:45:42.528Z,39.50
2018-06-08T05:46:42.482Z,42.60
2018-06-08T05:47:42.449Z,38.20
2018-06-08T05:48:42.398Z,42.80
2018-06-08T05:49:42.374Z,39.30
2018-06-08T05:50:42.321Z,41.50
2018-06-08T05:51:42.274Z,40.90
2018-06-08T05:52:42.234Z,40.20
2018-06-08T05:53:42.253Z,41.40
2018-06-08T05:54:42.173Z,39.80
2018-06-08T05:55:42.114Z,38.80
2018-06-08T05:56:42.696Z,43.20
2018-06-08T05:57:42.026Z,40.80
2018-06-08T05:58:42.024Z,38.20
2018-06-08T05:59:41.965Z,39.50
2018-06-08T06:00:41.906Z,39.10
2018-06-08T06:01:41.862Z,37.20
2018-06-08T06:02:41.822Z,38.70
2018-06-08T06:03:41.779Z,38.30
2018-06-08T06:04:41.732Z,35.30
2018-06-08T06:05:41.696Z,35.30
2018-06-08T06:06:41.656Z,37.10
2018-06-08T06:07:41.617Z,34.90
2018-06-08T06:08:41.585Z,38.10
2018-06-08T06:09:41.536Z,35.80
2018-06-08T06:10:41.495Z,34.90
2018-06-08T06:11:41.451Z,35.20
2018-06-08T06:12:41.410Z,35.40
2018-06-08T06:13:41.370Z,33.90
2018-06-08T06:14:41.334Z,35.40
2018-06-08T06:15:41.294Z,36.20
2018-06-08T06:16:41.252Z,39.40
2018-06-08T06:17:41.213Z,36.60
2018-06-08T06:18:41.172Z,36.10
2018-06-08T06:19:41.129Z,34.40
2018-06-08T06:20:41.084Z,35.10
2018-06-08T06:21:41.047Z,36.90
2018-06-08T06:22:41.007Z,33.50
2018-06-08T06:23:40.968Z,35.50
2018-06-08T06:24:40.922Z,33.20
2018-06-08T06:25:40.883Z,34.90
2018-06-08T06:26:40.840Z,34.10
2018-06-08T06:27:40.802Z,32.80
2018-06-08T06:28:40.756Z,33.60
2018-06-08T06:29:40.719Z,31.90
2018-06-08T06:30:40.674Z,37.20
2018-06-08T06:31:40.638Z,34.70
2018-06-08T06:32:40.626Z,33.20
2018-06-08T06:33:40.555Z,31.00
2018-06-08T06:34:40.515Z,33.60
2018-06-08T06:35:40.476Z,33.40
2018-06-08T06:36:40.437Z,34.50
2018-06-08T06:37:40.387Z,27.80
2018-06-08T06:38:40.350Z,29.00
2018-06-08T06:39:40.333Z,32.20
2018-06-08T06:40:40.275Z,31.10
2018-06-08T06:41:40.226Z,33.20
2018-06-08T06:42:40.191Z,29.30
2018-06-08T06:43:40.144Z,28.40
2018-06-08T06:44:40.109Z,27.00
2018-06-08T06:45:40.062Z,31.20
2018-06-08T06:46:40.023Z,31.60
2018-06-08T06:47:39.984Z,30.50
2018-06-08T06:48:39.941Z,31.40
2018-06-08T06:49:39.902Z,27.40
2018-06-08T06:51:15.766Z,29.20
2018-06-08T06:51:39.825Z,33.60
2018-06-08T06:52:42.792Z,28.80
2018-06-08T06:53:39.740Z,29.40
2018-06-08T06:54:39.698Z,31.60
2018-06-08T06:55:39.656Z,27.10
2018-06-08T06:56:39.618Z,29.60
2018-06-08T06:57:39.576Z,28.90
2018-06-08T06:58:39.537Z,30.70
2018-06-08T06:59:39.501Z,26.50
2018-06-08T07:00:39.458Z,27.60
2018-06-08T07:01:39.417Z,27.60
2018-06-08T07:02:39.378Z,26.90
2018-06-08T07:03:39.342Z,32.50
2018-06-08T07:04:39.352Z,27.10
2018-06-08T07:05:39.255Z,28.50
2018-06-08T07:06:39.216Z,25.30
2018-06-08T07:08:06.773Z,24.60
2018-06-08T07:08:39.141Z,23.70
2018-06-08T07:09:39.168Z,26.90
2018-06-08T07:10:39.060Z,26.70
2018-06-08T07:11:39.023Z,26.70
2018-06-08T07:12:38.980Z,27.10
2018-06-08T07:13:38.942Z,24.90
2018-06-08T07:14:38.907Z,25.80
2018-06-08T07:15:39.003Z,24.80
2018-06-08T07:16:38.823Z,25.90
2018-06-08T07:17:38.785Z,24.10
2018-06-08T07:18:38.866Z,23.40
2018-06-08T07:19:38.705Z,24.50
2018-06-08T07:20:38.666Z,25.00
2018-06-08T07:21:38.626Z,24.00
2018-06-08T07:22:38.591Z,25.20
2018-06-08T07:23:38.546Z,26.60
2018-06-08T07:24:38.508Z,24.20
2018-06-08T07:25:38.470Z,28.10
2018-06-08T07:26:38.428Z,25.10
2018-06-08T07:27:38.393Z,25.80
2018-06-08T07:28:38.352Z,25.70
2018-06-08T07:29:39.278Z,25.20
2018-06-08T07:30:38.283Z,28.70
2018-06-08T07:31:38.294Z,27.40
2018-06-08T07:32:38.196Z,25.00
2018-06-08T07:33:38.163Z,25.10
2018-06-08T07:34:38.117Z,24.50
2018-06-08T07:35:38.075Z,25.60
2018-06-08T07:36:38.037Z,27.80
2018-06-08T07:37:38.001Z,27.50
2018-06-08T07:38:37.979Z,25.10
2018-06-08T07:39:37.922Z,29.00
2018-06-08T07:40:38.034Z,28.30
2018-06-08T07:41:37.845Z,27.30
2018-06-08T07:42:37.809Z,28.40
2018-06-08T07:43:37.764Z,28.40
2018-06-08T07:44:37.777Z,30.40
2018-06-08T07:45:37.694Z,29.60
2018-06-08T07:46:37.649Z,27.50
2018-06-08T07:47:37.612Z,29.20
2018-06-08T07:48:37.571Z,25.50
2018-06-08T07:49:37.532Z,27.40
2018-06-08T07:50:37.502Z,25.50
2018-06-08T07:51:37.461Z,27.50
2018-06-08T07:52:37.423Z,25.60
2018-06-08T07:53:37.390Z,24.80
2018-06-08T07:54:37.349Z,25.60
2018-06-08T07:55:37.307Z,25.90
2018-06-08T07:56:37.266Z,26.70
2018-06-08T07:57:37.221Z,25.80
2018-06-08T07:58:37.191Z,26.20
2018-06-08T07:59:37.155Z,28.20
2018-06-08T08:00:37.109Z,26.90
2018-06-08T08:01:37.076Z,27.40
2018-06-08T08:02:37.035Z,25.90
2018-06-08T08:03:36.997Z,27.00
2018-06-08T08:04:36.961Z,25.30
2018-06-08T08:05:36.918Z,30.40
2018-06-08T08:06:36.881Z,28.00
2018-06-08T08:07:36.840Z,28.30
2018-06-08T08:08:36.800Z,28.00
2018-06-08T08:09:36.766Z,25.90
2018-06-08T08:10:36.708Z,30.00
2018-06-08T08:11:36.686Z,27.00
2018-06-08T08:12:36.639Z,27.60
2018-06-08T08:13:36.606Z,27.10
2018-06-08T08:14:36.570Z,26.90
2018-06-08T08:15:36.525Z,27.20
2018-06-08T08:16:36.491Z,29.10
2018-06-08T08:17:36.455Z,25.90
2018-06-08T08:18:36.406Z,24.60
2018-06-08T08:19:36.376Z,27.80
2018-06-08T08:20:36.328Z,26.20
2018-06-08T08:21:36.295Z,26.90
2018-06-08T08:22:36.258Z,24.10
2018-06-08T08:23:36.363Z,22.70
2018-06-08T08:24:36.181Z,24.40
2018-06-08T08:25:36.144Z,25.10
2018-06-08T08:26:36.098Z,23.60
2018-06-08T08:27:36.061Z,26.80
2018-06-08T08:28:36.020Z,26.20
2018-06-08T08:29:35.993Z,25.70
2018-06-08T08:31:03.798Z,23.20
2018-06-08T08:31:35.938Z,23.70
2018-06-08T08:32:36.092Z,25.50
2018-06-08T08:33:35.830Z,24.20
2018-06-08T08:34:35.785Z,23.10
2018-06-08T08:35:35.857Z,23.00
2018-06-08T08:36:35.721Z,23.50
2018-06-08T08:37:35.671Z,24.20
2018-06-08T08:38:35.634Z,24.90
2018-06-08T08:39:35.605Z,23.70
2018-06-08T08:40:35.556Z,21.80
2018-06-08T08:41:35.517Z,21.40
2018-06-08T08:42:35.484Z,20.60
2018-06-08T08:43:35.443Z,21.90
2018-06-08T08:44:35.401Z,22.80
2018-06-08T08:45:35.397Z,21.50
2018-06-08T08:46:35.334Z,24.50
2018-06-08T08:47:35.291Z,26.60
2018-06-08T08:48:35.252Z,23.50
2018-06-08T08:49:35.212Z,22.90
2018-06-08T08:50:35.175Z,22.70
2018-06-08T08:51:35.177Z,23.60
2018-06-08T08:52:35.099Z,26.70
2018-06-08T08:53:35.060Z,23.50
2018-06-08T08:54:35.021Z,23.20
2018-06-08T08:55:34.982Z,21.20
2018-06-08T08:56:34.945Z,23.30
2018-06-08T08:57:34.905Z,24.70
2018-06-08T08:58:34.867Z,24.10
2018-06-08T08:59:34.824Z,23.20
2018-06-08T09:00:34.789Z,19.80
2018-06-08T09:01:34.751Z,21.40
2018-06-08T09:02:34.708Z,25.60
2018-06-08T09:03:34.674Z,21.00
2018-06-08T09:04:34.643Z,20.80
2018-06-08T09:05:34.597Z,23.20
2018-06-08T09:06:34.562Z,21.90
2018-06-08T09:07:34.673Z,20.60
2018-06-08T09:08:34.487Z,20.30
2018-06-08T09:09:34.444Z,17.20
2018-06-08T09:10:34.461Z,23.10
2018-06-08T09:11:34.405Z,18.60
2018-06-08T09:12:34.336Z,19.50
2018-06-08T09:13:34.291Z,18.80
2018-06-08T09:14:34.248Z,17.50
2018-06-08T09:15:34.217Z,17.30
2018-06-08T09:16:34.183Z,21.10
2018-06-08T09:17:34.145Z,18.40
2018-06-08T09:18:34.102Z,17.20
2018-06-08T09:19:34.071Z,17.60
2018-06-08T09:20:34.031Z,17.00
2018-06-08T09:21:33.985Z,20.00
2018-06-08T09:22:33.951Z,20.50
2018-06-08T09:23:33.912Z,19.50
2018-06-08T09:24:33.873Z,20.70
2018-06-08T09:25:33.829Z,22.10
2018-06-08T09:26:33.791Z,19.40
2018-06-08T09:27:33.756Z,20.80
2018-06-08T09:28:33.724Z,19.60
2018-06-08T09:29:33.686Z,20.90
2018-06-08T09:30:33.648Z,21.50
2018-06-08T09:31:33.605Z,20.70
2018-06-08T09:32:33.562Z,21.30
2018-06-08T09:33:33.530Z,20.30
2018-06-08T09:34:33.492Z,16.70
2018-06-08T09:35:33.459Z,16.80
2018-06-08T09:36:33.464Z,18.60
2018-06-08T09:37:33.381Z,17.30
2018-06-08T09:38:33.339Z,16.70
2018-06-08T09:39:33.314Z,17.20
2018-06-08T09:40:33.274Z,17.00
2018-06-08T09:41:33.228Z,18.70
2018-06-08T09:42:33.195Z,19.90
2018-06-08T09:43:33.153Z,17.10
2018-06-08T09:44:33.116Z,19.20
2018-06-08T09:45:33.086Z,18.90
2018-06-08T09:46:33.045Z,17.80
2018-06-08T09:47:33.006Z,17.50
2018-06-08T09:48:32.967Z,19.60
2018-06-08T09:49:32.932Z,18.70
2018-06-08T09:50:32.893Z,17.30
2018-06-08T09:51:32.863Z,16.60
2018-06-08T09:52:32.822Z,18.20
2018-06-08T09:53:32.785Z,17.50
2018-06-08T09:54:32.745Z,15.70
2018-06-08T09:55:32.711Z,15.90
2018-06-08T09:56:32.670Z,15.00
2018-06-08T09:57:32.639Z,17.40
2018-06-08T09:58:32.599Z,17.20
2018-06-08T09:59:32.565Z,17.70
2018-06-08T10:00:32.530Z,16.30
2018-06-08T10:01:32.487Z,16.60
2018-06-08T10:02:32.450Z,14.40
2018-06-08T10:03:33.347Z,17.80
2018-06-08T10:04:32.375Z,16.50
2018-06-08T10:05:32.340Z,18.00
2018-06-08T10:06:32.304Z,20.50
2018-06-08T10:07:32.267Z,17.00
2018-06-08T10:08:32.231Z,17.00
2018-06-08T10:09:32.195Z,18.80
2018-06-08T10:10:32.158Z,16.50
2018-06-08T10:11:32.123Z,16.80
2018-06-08T10:12:32.086Z,16.10
2018-06-08T10:13:32.048Z,17.40
2018-06-08T10:14:32.035Z,15.60
2018-06-08T10:15:31.978Z,17.60
2018-06-08T10:16:31.989Z,15.70
2018-06-08T10:17:31.908Z,18.00
2018-06-08T10:18:32.066Z,19.50
2018-06-08T10:19:31.913Z,16.70
2018-06-08T10:20:31.798Z,18.40
2018-06-08T10:21:31.760Z,16.00
2018-06-08T10:22:31.724Z,16.20
2018-06-08T10:23:31.688Z,16.60
2018-06-08T10:24:31.653Z,16.00
2018-06-08T10:25:31.617Z,19.90
2018-06-08T10:26:31.576Z,18.60
2018-06-08T10:27:31.544Z,18.20
2018-06-08T10:28:31.507Z,17.90
2018-06-08T10:29:31.471Z,19.90
2018-06-08T10:30:31.434Z,21.50
2018-06-08T10:31:31.395Z,16.80
2018-06-08T10:32:31.357Z,16.60
2018-06-08T10:33:31.318Z,15.90
2018-06-08T10:34:31.282Z,12.50
2018-06-08T10:35:31.443Z,12.90
2018-06-08T10:36:31.207Z,10.80
2018-06-08T10:37:31.174Z,12.10
2018-06-08T10:38:31.165Z,10.90
2018-06-08T10:39:31.096Z,14.80
2018-06-08T10:40:31.060Z,13.10
2018-06-08T10:41:31.022Z,12.90
2018-06-08T10:42:30.996Z,15.40
2018-06-08T10:43:30.953Z,13.10
2018-06-08T10:44:30.910Z,15.40
2018-06-08T10:45:30.880Z,16.40
2018-06-08T10:46:30.840Z,17.50
2018-06-08T10:47:30.800Z,16.70
2018-06-08T10:48:30.764Z,16.30
2018-06-08T10:49:30.729Z,17.70
2018-06-08T10:50:30.692Z,15.20
2018-06-08T10:51:31.347Z,15.90
2018-06-08T10:52:30.616Z,12.80
2018-06-08T10:53:30.581Z,12.00
2018-06-08T10:54:30.548Z,12.80
2018-06-08T10:55:30.509Z,13.10
2018-06-08T10:56:30.640Z,15.30
2018-06-08T10:57:30.432Z,14.30
2018-06-08T10:58:30.395Z,15.50
2018-06-08T10:59:30.360Z,15.10
2018-06-08T11:00:30.321Z,14.20
2018-06-08T11:01:30.304Z,16.00
2018-06-08T11:02:30.249Z,17.00
2018-06-08T11:03:30.244Z,17.10
2018-06-08T11:04:30.176Z,15.10
2018-06-08T11:05:30.138Z,15.30
2018-06-08T11:06:30.103Z,14.70
2018-06-08T11:07:30.067Z,16.30
2018-06-08T11:08:30.222Z,16.40
2018-06-08T11:09:29.993Z,16.20
2018-06-08T11:10:30.021Z,15.20
2018-06-08T11:11:29.920Z,18.00
2018-06-08T11:12:29.883Z,14.80
2018-06-08T11:13:29.846Z,15.00
2018-06-08T11:14:29.807Z,13.70
2018-06-08T11:15:29.771Z,13.70
2018-06-08T11:16:29.736Z,14.80
2018-06-08T11:17:29.698Z,16.30
2018-06-08T11:18:29.679Z,13.90
2018-06-08T11:19:29.631Z,14.70
2018-06-08T11:20:29.585Z,12.60
2018-06-08T11:21:29.556Z,14.40
2018-06-08T11:22:29.514Z,13.90
2018-06-08T11:23:29.479Z,13.00
2018-06-08T11:24:29.443Z,13.70
2018-06-08T11:25:29.405Z,14.80
2018-06-08T11:26:29.366Z,13.60
2018-06-08T11:27:29.330Z,15.00
2018-06-08T11:28:29.360Z,13.00
2018-06-08T11:29:29.260Z,13.60
2018-06-08T11:30:29.219Z,15.50
2018-06-08T11:31:29.175Z,14.50
2018-06-08T11:32:29.146Z,13.60
2018-06-08T11:33:29.108Z,16.40
2018-06-08T11:34:29.351Z,13.10
2018-06-08T11:35:29.052Z,16.80
2018-06-08T11:36:28.997Z,14.10
2018-06-08T11:37:28.957Z,15.20
2018-06-08T11:38:28.920Z,15.30
2018-06-08T11:39:29.893Z,14.30
2018-06-08T11:40:28.957Z,14.80
2018-06-08T11:41:28.818Z,13.00
2018-06-08T11:42:28.974Z,12.80
2018-06-08T11:43:28.737Z,14.70
2018-06-08T11:44:28.700Z,12.90
2018-06-08T11:45:28.663Z,14.10
2018-06-08T11:46:28.630Z,12.60
2018-06-08T11:47:28.608Z,12.20
2018-06-08T11:48:28.551Z,11.60
2018-06-08T11:49:28.665Z,14.00
2018-06-08T11:50:28.476Z,12.00
2018-06-08T11:51:28.444Z,11.60
2018-06-08T11:52:28.402Z,11.40
2018-06-08T11:53:28.367Z,16.40
2018-06-08T11:54:28.354Z,11.90
2018-06-08T11:55:28.294Z,12.70
2018-06-08T11:56:28.504Z,13.20
2018-06-08T11:57:28.223Z,11.80
2018-06-08T11:58:28.185Z,13.30
2018-06-08T11:59:28.149Z,12.50
2018-06-08T12:00:28.113Z,12.20
2018-06-08T12:01:28.073Z,12.30
2018-06-08T12:02:28.039Z,14.50
2018-06-08T12:03:28.184Z,12.30
2018-06-08T12:04:27.970Z,12.80
2018-06-08T12:05:27.932Z,14.20
2018-06-08T12:06:27.899Z,12.50
2018-06-08T12:07:27.858Z,13.10
2018-06-08T12:08:27.854Z,12.60
2018-06-08T12:09:27.786Z,16.60
2018-06-08T12:10:27.992Z,13.10
2018-06-08T12:11:27.721Z,13.00
2018-06-08T12:12:27.679Z,14.30
2018-06-08T12:13:27.641Z,12.40
2018-06-08T12:14:27.606Z,14.50
2018-06-08T12:15:27.570Z,14.00
2018-06-08T12:16:27.532Z,14.10
2018-06-08T12:17:27.709Z,15.20
2018-06-08T12:18:27.461Z,13.30
2018-06-08T12:19:27.424Z,11.90
2018-06-08T12:20:27.388Z,13.20
2018-06-08T12:21:27.354Z,14.00
2018-06-08T12:22:27.336Z,12.40
2018-06-08T12:23:27.281Z,12.20
2018-06-08T12:24:27.398Z,11.80
2018-06-08T12:25:27.211Z,13.00
2018-06-08T12:26:27.173Z,11.20
2018-06-08T12:27:27.134Z,12.60
2018-06-08T12:28:27.099Z,14.20
2018-06-08T12:29:27.082Z,14.40
2018-06-08T12:30:27.028Z,12.10
2018-06-08T12:31:27.199Z,14.40
2018-06-08T12:32:26.954Z,12.30
2018-06-08T12:33:26.919Z,12.60
2018-06-08T12:34:26.890Z,12.90
2018-06-08T12:35:26.848Z,12.20
2018-06-08T12:36:26.840Z,15.60
2018-06-08T12:37:26.777Z,11.50
2018-06-08T12:38:26.875Z,16.50
2018-06-08T12:39:26.706Z,14.90
2018-06-08T12:40:26.922Z,13.00
2018-06-08T12:41:26.634Z,14.60
2018-06-08T12:42:26.594Z,17.20
2018-06-08T12:43:26.559Z,14.50
2018-06-08T12:44:26.525Z,14.40
2018-06-08T12:45:26.485Z,13.80
2018-06-08T12:46:26.451Z,14.10
2018-06-08T12:47:26.617Z,11.80
2018-06-08T12:48:26.378Z,12.20
2018-06-08T12:49:26.346Z,12.40
2018-06-08T12:50:26.306Z,12.60
2018-06-08T12:51:26.272Z,14.10
2018-06-08T12:52:26.254Z,12.80